createdAt,value
2019-05-15T00:00:12.660Z,53.59
2019-05-15T00:02:49.601Z,54.54
2019-05-15T00:05:20.341Z,55.15
2019-05-15T00:07:50.968Z,55.58
2019-05-15T00:10:21.656Z,55.14
2019-05-15T00:12:54.185Z,54.98
2019-05-15T00:15:24.765Z,55.28
2019-05-15T00:17:57.781Z,54.51
2019-05-15T00:20:34.111Z,54.46
2019-05-15T00:23:10.030Z,54.34
2019-05-15T00:25:40.734Z,54.10
2019-05-15T00:28:11.407Z,54.60
2019-05-15T00:30:42.142Z,54.97
2019-05-15T00:33:12.817Z,55.26
2019-05-15T00:35:43.513Z,55.61
2019-05-15T00:38:14.100Z,55.30
2019-05-15T00:40:44.778Z,55.19
2019-05-15T00:43:15.344Z,55.30
2019-05-15T00:45:46.036Z,55.60
2019-05-15T00:48:18.678Z,55.55
2019-05-15T00:50:50.360Z,55.24
2019-05-15T00:53:20.962Z,54.93
2019-05-15T00:55:51.623Z,54.46
2019-05-15T00:58:22.223Z,54.84
2019-05-15T01:00:52.939Z,55.68
2019-05-15T01:03:23.511Z,54.71
2019-05-15T01:05:54.123Z,53.91
2019-05-15T01:08:24.817Z,53.97
2019-05-15T01:10:55.381Z,52.19
2019-05-15T01:13:28.160Z,53.11
2019-05-15T01:15:59.455Z,52.85
2019-05-15T01:18:29.976Z,52.99
2019-05-15T01:21:04.510Z,53.44
2019-05-15T01:23:35.162Z,52.77
2019-05-15T01:26:08.165Z,53.67
2019-05-15T01:28:38.598Z,53.54
2019-05-15T01:31:09.225Z,53.70
2019-05-15T01:33:39.913Z,54.49
2019-05-15T01:36:10.484Z,53.79
2019-05-15T01:38:41.037Z,53.36
2019-05-15T01:41:11.731Z,53.19
2019-05-15T01:43:42.380Z,53.31
2019-05-15T01:46:39.381Z,53.79
2019-05-15T01:49:09.771Z,53.72
2019-05-15T01:51:40.354Z,53.79
2019-05-15T01:54:10.820Z,53.88
2019-05-15T01:56:41.471Z,54.01
2019-05-15T01:59:13.076Z,54.48
2019-05-15T02:01:52.816Z,54.32
2019-05-15T02:04:28.960Z,54.71
2019-05-15T02:07:00.786Z,55.02
2019-05-15T02:09:31.435Z,55.56
2019-05-15T02:12:08.959Z,55.97
2019-05-15T02:14:39.638Z,56.57
2019-05-15T02:17:11.337Z,56.49
2019-05-15T02:19:42.031Z,57.09
2019-05-15T02:22:18.963Z,57.38
2019-05-15T02:24:49.380Z,57.47
2019-05-15T02:27:19.959Z,57.58
2019-05-15T02:30:16.363Z,58.06
2019-05-15T02:32:39.087Z,57.08
2019-05-15T02:35:09.989Z,58.03
2019-05-15T02:37:41.599Z,57.79
2019-05-15T02:40:12.313Z,57.65
2019-05-15T02:42:49.297Z,57.29
2019-05-15T02:45:19.809Z,57.54
2019-05-15T02:47:50.950Z,57.13
2019-05-15T02:50:23.456Z,57.32
2019-05-15T02:52:54.148Z,56.50
2019-05-15T02:55:24.797Z,57.13
2019-05-15T02:57:58.889Z,57.47
2019-05-15T03:00:37.725Z,57.20
2019-05-15T03:03:00.464Z,57.68
2019-05-15T03:05:40.710Z,57.22
2019-05-15T03:08:19.510Z,57.12
2019-05-15T03:10:50.332Z,57.23
2019-05-15T03:13:23.190Z,57.72
2019-05-15T03:15:53.788Z,57.45
2019-05-15T03:18:30.006Z,57.21
2019-05-15T03:21:00.679Z,56.79
2019-05-15T03:23:31.311Z,57.03
2019-05-15T03:26:04.409Z,57.39
2019-05-15T03:28:34.363Z,57.18
2019-05-15T03:31:25.897Z,57.34
2019-05-15T03:33:44.915Z,57.17
2019-05-15T03:36:13.666Z,57.28
2019-05-15T03:38:44.170Z,57.23
2019-05-15T03:41:14.815Z,55.11
2019-05-15T03:44:09.439Z,56.54
2019-05-15T03:46:42.238Z,57.50
2019-05-15T03:49:12.860Z,57.08
2019-05-15T03:51:45.845Z,56.93
2019-05-15T03:54:18.922Z,56.17
2019-05-15T03:56:50.836Z,56.97
2019-05-15T03:59:32.678Z,56.72
2019-05-15T04:02:11.233Z,56.44
2019-05-15T04:04:41.967Z,56.70
2019-05-15T04:07:18.600Z,56.96
2019-05-15T04:09:52.381Z,57.17
2019-05-15T04:12:29.213Z,56.91
2019-05-15T04:15:05.514Z,57.08
2019-05-15T04:17:39.608Z,57.47
2019-05-15T04:20:11.696Z,57.37
2019-05-15T04:22:42.353Z,57.39
2019-05-15T04:25:19.128Z,56.45
2019-05-15T04:27:50.165Z,56.86
2019-05-15T04:30:20.749Z,57.01
2019-05-15T04:32:51.367Z,57.11
2019-05-15T04:35:22.018Z,57.19
2019-05-15T04:37:52.632Z,57.04
2019-05-15T04:40:24.341Z,57.35
2019-05-15T04:42:59.327Z,57.50
2019-05-15T04:45:34.759Z,57.99
2019-05-15T04:48:10.451Z,58.29
2019-05-15T04:50:43.887Z,57.58
2019-05-15T04:53:21.682Z,58.13
2019-05-15T04:55:52.423Z,57.99
2019-05-15T04:58:33.578Z,58.00
2019-05-15T05:01:04.264Z,57.98
2019-05-15T05:03:35.104Z,56.78
2019-05-15T05:06:09.709Z,57.47
2019-05-15T05:08:49.045Z,57.45
2019-05-15T05:11:23.868Z,56.32
2019-05-15T05:14:01.952Z,56.89
2019-05-15T05:16:41.985Z,56.00
2019-05-15T05:19:22.936Z,56.02
2019-05-15T05:21:53.677Z,55.44
2019-05-15T05:24:24.407Z,54.95
2019-05-15T05:27:00.243Z,54.95
2019-05-15T05:29:38.644Z,55.36
2019-05-15T05:32:09.368Z,53.91
2019-05-15T05:35:04.101Z,53.63
2019-05-15T05:37:34.711Z,52.90
2019-05-15T05:40:08.054Z,53.29
2019-05-15T05:42:39.121Z,52.04
2019-05-15T05:45:10.498Z,51.29
2019-05-15T05:47:43.209Z,51.73
2019-05-15T05:50:19.586Z,50.73
2019-05-15T05:52:50.340Z,50.89
2019-05-15T05:55:21.075Z,49.43
2019-05-15T05:58:05.177Z,50.51
2019-05-15T06:00:41.109Z,50.34
2019-05-15T06:03:11.923Z,49.13
2019-05-15T06:05:42.801Z,48.92
2019-05-15T06:08:13.485Z,48.85
2019-05-15T06:10:49.695Z,48.42
2019-05-15T06:13:20.715Z,48.29
2019-05-15T06:16:04.014Z,46.02
2019-05-15T06:18:38.811Z,47.05
2019-05-15T06:21:17.809Z,45.78
2019-05-15T06:23:55.048Z,46.51
2019-05-15T06:26:22.120Z,47.01
2019-05-15T06:28:52.901Z,45.82
2019-05-15T06:31:23.621Z,46.47
2019-05-15T06:33:54.299Z,46.81
2019-05-15T06:36:25.013Z,46.50
2019-05-15T06:38:55.793Z,43.58
2019-05-15T06:41:28.641Z,40.04
2019-05-15T06:43:59.351Z,40.33
2019-05-15T06:46:29.946Z,40.96
2019-05-15T06:49:00.704Z,41.11
2019-05-15T06:51:31.355Z,40.23
2019-05-15T06:54:02.053Z,39.67
2019-05-15T06:56:32.783Z,40.99
2019-05-15T06:59:03.346Z,38.63
2019-05-15T07:01:34.000Z,38.43
2019-05-15T07:04:11.112Z,38.33
2019-05-15T07:07:01.413Z,37.04
2019-05-15T07:09:38.034Z,34.50
2019-05-15T07:12:11.655Z,35.55
2019-05-15T07:14:42.602Z,35.02
2019-05-15T07:17:13.330Z,35.12
2019-05-15T07:19:43.971Z,35.67
2019-05-15T07:22:21.573Z,35.91
2019-05-15T07:24:52.291Z,34.71
2019-05-15T07:27:22.957Z,34.57
2019-05-15T07:29:54.663Z,34.12
2019-05-15T07:32:34.454Z,32.60
2019-05-15T07:35:05.592Z,31.56
2019-05-15T07:37:38.803Z,30.93
2019-05-15T07:40:13.442Z,32.22
2019-05-15T07:42:44.185Z,30.53
2019-05-15T07:45:15.057Z,30.57
2019-05-15T07:47:45.724Z,30.82
2019-05-15T07:50:16.563Z,31.69
2019-05-15T07:52:48.543Z,30.56
2019-05-15T07:55:19.473Z,28.73
2019-05-15T07:57:53.206Z,28.52
2019-05-15T08:00:24.056Z,27.63
2019-05-15T08:02:54.658Z,27.84
2019-05-15T08:05:28.502Z,27.36
2019-05-15T08:08:00.887Z,28.27
2019-05-15T08:10:31.753Z,31.87
2019-05-15T08:13:02.533Z,29.40
2019-05-15T08:15:38.118Z,28.69
2019-05-15T08:18:12.677Z,29.52
2019-05-15T08:20:41.433Z,30.42
2019-05-15T08:23:12.010Z,28.81
2019-05-15T08:25:42.572Z,27.67
2019-05-15T08:28:13.384Z,27.39
2019-05-15T08:30:44.082Z,27.92
2019-05-15T08:33:14.904Z,27.14
2019-05-15T08:35:51.770Z,27.96
2019-05-15T08:38:21.776Z,27.00
2019-05-15T08:40:52.520Z,27.27
2019-05-15T08:43:31.389Z,28.28
2019-05-15T08:46:01.731Z,27.40
2019-05-15T08:48:32.945Z,27.70
2019-05-15T08:51:05.910Z,27.30
2019-05-15T08:53:38.008Z,28.07
2019-05-15T08:56:08.900Z,27.97
2019-05-15T08:58:39.542Z,27.52
2019-05-15T09:01:11.253Z,27.55
2019-05-15T09:03:42.065Z,27.81
2019-05-15T09:06:12.725Z,28.02
2019-05-15T09:08:43.304Z,28.54
2019-05-15T09:11:14.350Z,27.60
2019-05-15T09:13:44.951Z,28.18
2019-05-15T09:16:18.687Z,28.54
2019-05-15T09:18:49.459Z,28.71
2019-05-15T09:21:20.143Z,28.96
2019-05-15T09:23:50.747Z,28.80
2019-05-15T09:26:21.528Z,29.26
2019-05-15T09:28:52.184Z,29.27
2019-05-15T09:31:22.935Z,29.86
2019-05-15T09:33:53.568Z,30.20
2019-05-15T09:36:24.302Z,30.40
2019-05-15T09:38:54.985Z,29.40
2019-05-15T09:41:28.640Z,29.70
2019-05-15T09:44:08.523Z,29.63
2019-05-15T09:46:39.169Z,29.58
2019-05-15T09:49:10.868Z,30.13
2019-05-15T09:51:41.608Z,29.93
2019-05-15T09:54:12.257Z,29.76
2019-05-15T09:56:43.118Z,30.12
2019-05-15T09:59:28.149Z,29.96
2019-05-15T10:02:03.045Z,30.91
2019-05-15T10:04:33.772Z,30.91
2019-05-15T10:07:08.059Z,31.08
2019-05-15T10:09:39.005Z,30.66
2019-05-15T10:12:09.838Z,31.35
2019-05-15T10:14:40.544Z,30.18
2019-05-15T10:17:12.240Z,31.06
2019-05-15T10:19:50.476Z,31.16
2019-05-15T10:22:21.157Z,31.01
2019-05-15T10:24:51.860Z,32.34
2019-05-15T10:27:22.542Z,30.72
2019-05-15T10:29:54.322Z,30.30
2019-05-15T10:32:28.775Z,30.96
2019-05-15T10:34:59.251Z,30.68
2019-05-15T10:37:30.916Z,30.46
2019-05-15T10:40:02.586Z,30.84
2019-05-15T10:42:33.402Z,30.10
2019-05-15T10:45:04.829Z,30.87
2019-05-15T10:47:38.845Z,30.39
2019-05-15T10:50:10.068Z,30.36
2019-05-15T10:52:44.205Z,31.22
2019-05-15T10:55:18.885Z,31.62
2019-05-15T10:57:50.228Z,31.41
2019-05-15T11:00:22.813Z,30.86
2019-05-15T11:03:04.005Z,31.60
2019-05-15T11:05:45.182Z,31.02
2019-05-15T11:08:13.826Z,31.40
2019-05-15T11:10:44.851Z,30.52
2019-05-15T11:13:18.934Z,30.41
2019-05-15T11:15:51.858Z,30.80
2019-05-15T11:18:25.177Z,30.74
2019-05-15T11:20:59.742Z,29.76
2019-05-15T11:23:33.600Z,29.23
2019-05-15T11:26:05.848Z,29.50
2019-05-15T11:28:39.338Z,29.44
2019-05-15T11:31:13.187Z,29.34
2019-05-15T11:33:49.100Z,30.11
2019-05-15T11:36:22.773Z,30.16
2019-05-15T11:38:55.156Z,29.90
2019-05-15T11:41:29.548Z,28.72
2019-05-15T11:44:01.325Z,29.04
2019-05-15T11:46:42.484Z,29.65
2019-05-15T11:49:32.893Z,29.95
2019-05-15T11:52:05.715Z,28.04
2019-05-15T11:54:38.538Z,28.57
2019-05-15T11:57:14.634Z,28.23
2019-05-15T11:59:46.416Z,27.91
2019-05-15T12:02:18.881Z,27.65
2019-05-15T12:04:49.738Z,28.43
2019-05-15T12:07:20.415Z,26.52
2019-05-15T12:09:51.152Z,26.81
2019-05-15T12:12:21.952Z,27.99
2019-05-15T12:14:57.244Z,28.01
2019-05-15T12:17:28.583Z,28.44
2019-05-15T12:20:05.667Z,28.35
2019-05-15T12:22:32.681Z,28.30
2019-05-15T12:25:03.410Z,27.12
2019-05-15T12:27:35.100Z,27.12
2019-05-15T12:30:09.800Z,27.23
2019-05-15T12:32:40.425Z,27.40
2019-05-15T12:35:11.911Z,27.34
2019-05-15T12:37:44.476Z,27.24
2019-05-15T13:00:42.070Z,27.06
2019-05-15T13:03:28.952Z,26.64
2019-05-15T13:05:59.458Z,26.23
2019-05-15T13:08:30.047Z,26.50
2019-05-15T13:11:01.021Z,26.76
2019-05-15T13:13:31.656Z,26.87
2019-05-15T13:16:02.656Z,27.03
2019-05-15T13:18:33.312Z,27.71
2019-05-15T13:21:04.080Z,27.53
2019-05-15T13:23:34.634Z,26.57
2019-05-15T13:26:12.723Z,27.50
2019-05-15T13:28:38.688Z,27.28
2019-05-15T13:31:09.398Z,26.51
2019-05-15T13:33:40.099Z,27.20
2019-05-15T13:36:10.727Z,26.67
2019-05-15T13:38:41.424Z,27.75
2019-05-15T13:41:13.023Z,27.20
2019-05-15T13:43:49.091Z,27.07
2019-05-15T13:46:20.725Z,26.98
2019-05-15T13:48:52.673Z,27.46
2019-05-15T13:51:23.370Z,27.27
2019-05-15T13:53:55.141Z,27.10
2019-05-15T13:56:25.813Z,26.82
2019-05-15T13:58:58.544Z,26.58
2019-05-15T14:01:29.714Z,26.32
2019-05-15T14:04:00.394Z,26.23
2019-05-15T14:06:32.109Z,27.02
2019-05-15T14:09:03.144Z,27.04
2019-05-15T14:11:34.421Z,26.42
2019-05-15T14:14:05.283Z,27.69
2019-05-15T14:16:38.371Z,27.26
2019-05-15T14:19:10.910Z,28.08
2019-05-15T14:21:41.582Z,27.58
2019-05-15T14:24:13.246Z,28.10
2019-05-15T14:26:44.837Z,27.52
2019-05-15T14:29:15.496Z,27.83
2019-05-15T14:31:48.333Z,27.32
2019-05-15T14:34:18.812Z,27.23
2019-05-15T14:36:49.531Z,26.83
2019-05-15T14:39:21.009Z,26.92
2019-05-15T14:41:51.815Z,27.11
2019-05-15T14:44:22.319Z,26.67
2019-05-15T14:46:52.915Z,27.06
2019-05-15T14:49:23.532Z,27.78
2019-05-15T14:52:05.638Z,26.99
2019-05-15T14:54:29.051Z,27.42
2019-05-15T14:57:04.560Z,27.98
2019-05-15T14:59:39.383Z,27.90
2019-05-15T15:02:09.993Z,27.72
2019-05-15T15:04:40.675Z,28.18
2019-05-15T15:07:11.503Z,27.82
2019-05-15T15:09:47.786Z,29.08
2019-05-15T15:12:18.986Z,27.06
2019-05-15T15:14:49.591Z,27.94
2019-05-15T15:17:23.528Z,27.12
2019-05-15T15:20:02.182Z,27.81
2019-05-15T15:22:33.047Z,28.15
2019-05-15T15:25:04.094Z,28.38
2019-05-15T15:27:34.825Z,28.71
2019-05-15T15:30:09.331Z,28.35
2019-05-15T15:32:40.312Z,28.85
2019-05-15T15:35:10.991Z,28.04
2019-05-15T15:37:41.674Z,28.25
2019-05-15T15:40:13.372Z,28.07
2019-05-15T15:42:44.050Z,28.37
2019-05-15T15:45:15.551Z,28.02
2019-05-15T15:47:51.237Z,28.56
2019-05-15T15:50:21.881Z,28.27
2019-05-15T15:52:52.515Z,29.12
2019-05-15T15:55:23.229Z,28.66
2019-05-15T15:57:54.624Z,27.88
2019-05-15T16:00:25.320Z,27.73
2019-05-15T16:02:56.403Z,28.24
2019-05-15T16:05:29.092Z,28.36
2019-05-15T16:08:08.256Z,28.71
2019-05-15T16:10:38.253Z,28.79
2019-05-15T16:13:09.801Z,29.09
2019-05-15T16:15:40.737Z,29.12
2019-05-15T16:18:18.486Z,28.78
2019-05-15T16:20:49.186Z,29.32
2019-05-15T16:23:19.806Z,29.18
2019-05-15T16:25:50.472Z,28.89
2019-05-15T16:28:21.164Z,28.70
2019-05-15T16:30:51.857Z,28.51
2019-05-15T16:33:22.594Z,28.48
2019-05-15T16:35:53.175Z,28.21
2019-05-15T16:38:28.229Z,27.91
2019-05-15T16:40:58.503Z,28.09
2019-05-15T16:43:30.355Z,28.23
2019-05-15T16:46:00.944Z,29.12
2019-05-15T16:48:31.465Z,28.58
2019-05-15T16:51:02.167Z,28.29
2019-05-15T16:53:32.810Z,28.68
2019-05-15T16:56:03.582Z,29.15
2019-05-15T16:58:34.228Z,28.94
2019-05-15T17:01:04.985Z,29.14
2019-05-15T17:03:37.902Z,29.40
2019-05-15T17:06:10.097Z,29.82
2019-05-15T17:08:40.760Z,29.10
2019-05-15T17:11:11.332Z,29.90
2019-05-15T17:13:42.151Z,29.69
2019-05-15T17:16:13.748Z,28.84
2019-05-15T17:18:44.514Z,28.76
2019-05-15T17:21:15.214Z,29.40
2019-05-15T17:23:51.445Z,29.11
2019-05-15T17:26:23.982Z,29.09
2019-05-15T17:28:54.741Z,29.14
2019-05-15T17:31:25.305Z,29.44
2019-05-15T17:33:58.295Z,30.04
2019-05-15T17:36:32.012Z,30.28
2019-05-15T17:39:01.341Z,28.77
2019-05-15T17:41:40.557Z,28.19
2019-05-15T17:44:11.279Z,28.58
2019-05-15T17:46:42.258Z,28.74
2019-05-15T17:49:17.999Z,29.05
2019-05-15T17:51:48.955Z,29.47
2019-05-15T17:54:19.637Z,29.19
2019-05-15T17:56:58.457Z,29.83
2019-05-15T17:59:28.814Z,29.87
2019-05-15T18:01:59.716Z,29.84
2019-05-15T18:04:32.253Z,28.82
2019-05-15T18:07:08.761Z,29.50
2019-05-15T18:09:50.291Z,29.54
2019-05-15T18:12:15.247Z,29.76
2019-05-15T18:14:47.764Z,29.67
2019-05-15T18:17:18.651Z,29.75
2019-05-15T18:19:51.906Z,30.25
2019-05-15T18:22:23.911Z,29.65
2019-05-15T18:24:54.712Z,29.90
2019-05-15T18:27:26.411Z,30.18
2019-05-15T18:29:58.389Z,30.91
2019-05-15T18:32:32.157Z,30.69
2019-05-15T18:35:02.757Z,31.18
2019-05-15T18:37:34.711Z,30.54
2019-05-15T18:40:09.018Z,30.50
2019-05-15T18:42:39.100Z,30.71
2019-05-15T18:45:17.885Z,31.05
2019-05-15T18:47:48.317Z,31.38
2019-05-15T18:50:20.089Z,31.43
2019-05-15T18:52:50.738Z,31.51
2019-05-15T18:55:21.314Z,31.52
2019-05-15T18:57:52.090Z,32.07
2019-05-15T19:00:22.674Z,32.73
2019-05-15T19:02:53.247Z,32.44
2019-05-15T19:05:23.975Z,33.84
2019-05-15T19:07:54.701Z,33.02
2019-05-15T19:10:27.974Z,33.00
2019-05-15T19:12:59.363Z,33.78
2019-05-15T19:15:30.463Z,34.00
2019-05-15T19:18:07.841Z,34.59
2019-05-15T19:20:39.080Z,35.70
2019-05-15T19:23:10.388Z,35.56
2019-05-15T19:25:41.381Z,35.82
2019-05-15T19:28:12.115Z,37.14
2019-05-15T19:30:42.926Z,37.09
2019-05-15T19:33:13.918Z,37.19
2019-05-15T19:35:44.682Z,36.82
2019-05-15T19:38:18.568Z,37.74
2019-05-15T19:40:50.413Z,37.77
2019-05-15T19:43:21.091Z,38.33
2019-05-15T19:45:51.803Z,38.42
2019-05-15T19:48:22.619Z,39.25
2019-05-15T19:50:53.207Z,39.40
2019-05-15T19:53:23.877Z,39.25
2019-05-15T19:55:54.559Z,39.83
2019-05-15T19:58:28.660Z,39.83
2019-05-15T20:00:59.386Z,40.77
2019-05-15T20:03:32.168Z,40.96
2019-05-15T20:06:02.836Z,40.64
2019-05-15T20:08:33.680Z,40.62
2019-05-15T20:11:06.190Z,40.49
2019-05-15T20:13:38.383Z,41.50
2019-05-15T20:16:09.441Z,41.45
2019-05-15T20:18:42.117Z,41.39
2019-05-15T20:21:12.949Z,41.84
2019-05-15T20:23:43.885Z,43.03
2019-05-15T20:26:17.937Z,42.62
2019-05-15T20:28:49.144Z,42.81
2019-05-15T20:31:19.907Z,42.53
2019-05-15T20:34:02.390Z,43.47
2019-05-15T20:36:25.383Z,43.67
2019-05-15T20:38:58.828Z,43.08
2019-05-15T20:41:30.549Z,43.64
2019-05-15T20:44:01.538Z,43.59
2019-05-15T20:46:32.489Z,44.49
2019-05-15T20:49:04.663Z,43.89
2019-05-15T20:51:38.960Z,44.13
2019-05-15T20:54:09.349Z,43.86
2019-05-15T20:56:39.959Z,44.78
2019-05-15T20:59:18.084Z,44.25
2019-05-15T21:01:50.778Z,44.71
2019-05-15T21:04:23.878Z,45.17
2019-05-15T21:06:53.323Z,44.70
2019-05-15T21:09:30.196Z,45.41
2019-05-15T21:11:59.440Z,45.21
2019-05-15T21:14:32.293Z,45.64
2019-05-15T21:17:04.029Z,45.64
2019-05-15T21:19:34.911Z,46.04
2019-05-15T21:22:05.501Z,46.41
2019-05-15T21:24:37.924Z,45.94
2019-05-15T21:27:12.467Z,46.25
2019-05-15T21:29:45.096Z,46.91
2019-05-15T21:32:19.645Z,46.39
2019-05-15T21:34:50.858Z,46.79
2019-05-15T21:37:21.881Z,46.81
2019-05-15T21:39:52.533Z,47.22
2019-05-15T21:42:23.710Z,47.10
2019-05-15T21:44:54.340Z,47.47
2019-05-15T21:47:28.087Z,47.31
2019-05-15T21:50:04.703Z,47.89
2019-05-15T21:52:35.357Z,47.99
2019-05-15T21:55:08.933Z,47.93
2019-05-15T21:57:41.309Z,47.57
2019-05-15T22:00:18.107Z,47.87
2019-05-15T22:02:50.781Z,47.99
2019-05-15T22:05:21.486Z,48.47
2019-05-15T22:07:52.498Z,48.27
2019-05-15T22:10:23.620Z,48.51
2019-05-15T22:12:54.197Z,48.64
2019-05-15T22:15:28.971Z,48.51
2019-05-15T22:18:00.182Z,49.09
2019-05-15T22:20:32.889Z,49.85
2019-05-15T22:23:13.497Z,49.98
2019-05-15T22:25:51.811Z,49.79
2019-05-15T22:28:22.554Z,50.03
2019-05-15T22:30:55.301Z,49.78
2019-05-15T22:33:28.252Z,50.09
2019-05-15T22:35:59.293Z,50.26
2019-05-15T22:38:30.417Z,50.57
2019-05-15T22:41:01.227Z,50.40
2019-05-15T22:43:39.212Z,50.58
2019-05-15T22:46:10.938Z,50.37
2019-05-15T22:48:42.432Z,50.23
2019-05-15T22:51:18.215Z,50.31
2019-05-15T22:53:48.937Z,49.79
2019-05-15T22:56:22.132Z,50.11
2019-05-15T22:58:55.073Z,50.13
2019-05-15T23:01:25.880Z,50.56
2019-05-15T23:03:58.344Z,50.73
2019-05-15T23:06:29.001Z,50.48
2019-05-15T23:09:11.674Z,50.72
2019-05-15T23:11:45.431Z,50.31
2019-05-15T23:14:17.994Z,50.32
2019-05-15T23:16:48.521Z,50.70
2019-05-15T23:19:19.235Z,51.26
2019-05-15T23:21:52.040Z,51.17
2019-05-15T23:24:23.804Z,51.56
2019-05-15T23:26:54.479Z,52.17
2019-05-15T23:29:30.456Z,52.16
2019-05-15T23:32:08.031Z,51.89
2019-05-15T23:34:38.746Z,52.41
2019-05-15T23:37:12.484Z,52.26
2019-05-15T23:39:43.079Z,52.45
2019-05-15T23:42:13.757Z,52.30
2019-05-15T23:44:44.334Z,51.91
2019-05-15T23:47:14.936Z,52.19
2019-05-15T23:49:45.533Z,52.26
2019-05-15T23:52:16.152Z,52.47
2019-05-15T23:54:46.743Z,52.72
2019-05-15T23:57:18.016Z,52.85
2019-05-15T23:59:48.723Z,53.14
